Time;durP1;ratioP1;P1;durP2;ratioP2;P2;SDS_P1;SDS_P2;PMS_P1;PMS_P2;Temp;Humidity;BMP_temperature;BMP_pressure;BME280_temperature;BME280_humidity;BME280_pressure;Samples;Min_cycle;Max_cycle;Signal;HPM_P1;HPM_P2
2023/03/04 00:00:14;;;;;;;15.20;3.47;;;;;;;4.25;100.00;102480.09;5248478;28;20060;-76
2023/03/04 00:02:46;;;;;;;17.33;3.47;;;;;;;4.24;100.00;102478.38;5248260;28;20028;-76
2023/03/04 00:05:17;;;;;;;17.05;3.33;;;;;;;4.23;100.00;102487.19;5252808;28;20479;-76
2023/03/04 00:07:48;;;;;;;14.98;3.38;;;;;;;4.21;100.00;102481.94;5254217;28;20036;-76
2023/03/04 00:10:20;;;;;;;15.60;3.20;;;;;;;4.20;100.00;102490.78;5251118;28;20036;-76
2023/03/04 00:12:51;;;;;;;17.10;3.35;;;;;;;4.19;100.00;102485.53;5254750;28;20290;-76
2023/03/04 00:15:22;;;;;;;13.65;3.00;;;;;;;4.18;100.00;102475.84;5254519;28;20048;-76
2023/03/04 00:17:53;;;;;;;17.33;4.07;;;;;;;4.17;100.00;102484.72;5252362;28;20040;-76
2023/03/04 00:20:25;;;;;;;15.30;3.30;;;;;;;4.15;100.00;102486.50;5249215;28;20487;-76
2023/03/04 00:22:56;;;;;;;15.52;4.05;;;;;;;4.18;100.00;102479.38;5254459;28;20398;-76
2023/03/04 00:25:27;;;;;;;13.75;3.38;;;;;;;4.16;100.00;102473.28;5255186;28;20055;-76
2023/03/04 00:27:59;;;;;;;15.27;3.60;;;;;;;4.13;100.00;102473.34;5253350;28;20403;-76
2023/03/04 00:30:30;;;;;;;14.70;3.85;;;;;;;4.14;100.00;102469.78;5257275;28;20129;-76
2023/03/04 00:33:01;;;;;;;19.15;4.07;;;;;;;4.16;100.00;102465.34;5255106;28;20574;-76
2023/03/04 00:35:33;;;;;;;13.43;3.47;;;;;;;4.17;100.00;102474.13;5254789;28;20029;-76
2023/03/04 00:38:04;;;;;;;14.75;3.72;;;;;;;4.17;100.00;102468.84;5250765;28;20459;-76
2023/03/04 00:40:36;;;;;;;16.95;3.83;;;;;;;4.18;100.00;102475.84;5251500;28;20475;-76
2023/03/04 00:43:07;;;;;;;14.85;3.20;;;;;;;4.19;100.00;102477.59;5252017;28;20033;-77
2023/03/04 00:45:38;;;;;;;18.67;4.03;;;;;;;4.19;100.00;102467.03;5252701;28;20039;-76
2023/03/04 00:48:10;;;;;;;16.00;3.25;;;;;;;4.25;100.00;102472.19;5251310;28;20065;-76
2023/03/04 00:50:42;;;;;;;16.00;3.50;;;;;;;4.28;100.00;102470.34;5250857;28;20044;-76
2023/03/04 00:53:13;;;;;;;18.42;3.95;;;;;;;4.25;100.00;102466.88;5251333;28;20104;-76
2023/03/04 00:55:45;;;;;;;20.40;3.50;;;;;;;4.25;100.00;102469.53;5249267;28;20082;-76
2023/03/04 00:58:16;;;;;;;16.67;3.10;;;;;;;4.24;100.00;102473.09;5252224;28;20188;-77
2023/03/04 01:00:47;;;;;;;12.73;3.10;;;;;;;4.27;100.00;102467.72;5251010;28;20059;-76
2023/03/04 01:03:19;;;;;;;13.65;3.65;;;;;;;4.25;100.00;102467.75;5249147;28;20041;-76
2023/03/04 01:05:50;;;;;;;14.02;3.55;;;;;;;4.25;100.00;102465.09;5255781;28;20025;-76
2023/03/04 01:08:22;;;;;;;19.80;3.83;;;;;;;4.32;100.00;102471.13;5257089;28;20021;-76
2023/03/04 01:10:53;;;;;;;16.60;3.40;;;;;;;4.24;100.00;102470.44;5248447;28;20030;-76
2023/03/04 01:13:24;;;;;;;12.05;3.17;;;;;;;4.22;100.00;102481.06;5251995;28;20124;-76
2023/03/04 01:15:56;;;;;;;14.60;3.97;;;;;;;4.22;100.00;102478.41;5247592;28;20091;-76
2023/03/04 01:18:27;;;;;;;16.40;3.40;;;;;;;4.24;100.00;102479.25;5250849;28;20029;-78
2023/03/04 01:20:59;;;;;;;16.38;3.70;;;;;;;4.24;100.00;102478.38;5255044;28;20037;-78
2023/03/04 01:23:30;;;;;;;16.50;3.70;;;;;;;4.27;100.00;102475.66;5252178;28;20032;-79
2023/03/04 01:26:02;;;;;;;15.40;2.83;;;;;;;4.27;100.00;102473.00;5252107;28;20061;-78
2023/03/04 01:28:34;;;;;;;16.35;3.38;;;;;;;4.27;100.00;102467.72;5253462;28;20112;-78
2023/03/04 01:31:06;;;;;;;17.67;2.67;;;;;;;4.28;100.00;102472.13;5251947;28;20515;-78
2023/03/04 01:33:37;;;;;;;15.43;3.13;;;;;;;4.35;100.00;102475.47;5251993;28;20032;-78
2023/03/04 01:36:08;;;;;;;12.70;2.55;;;;;;;4.32;100.00;102468.50;5249400;28;20064;-78
2023/03/04 01:38:40;;;;;;;13.63;2.92;;;;;;;4.33;100.00;102472.84;5252929;28;20040;-78
2023/03/04 01:41:12;;;;;;;13.25;2.95;;;;;;;4.35;100.00;102470.19;5249209;28;20028;-78
2023/03/04 01:43:44;;;;;;;15.82;3.10;;;;;;;4.31;100.00;102465.00;5250053;28;20064;-78
2023/03/04 01:46:16;;;;;;;11.07;2.58;;;;;;;4.30;100.00;102459.72;5249582;28;20788;-78
2023/03/04 01:48:47;;;;;;;17.73;2.63;;;;;;;4.30;100.00;102459.72;5246639;28;20064;-78
2023/03/04 01:51:20;;;;;;;13.98;2.55;;;;;;;4.41;100.00;102457.69;5253694;28;20510;-78
2023/03/04 01:53:53;;;;;;;14.57;2.65;;;;;;;4.33;100.00;102446.44;5248769;28;20048;-78
2023/03/04 01:56:28;;;;;;;8.80;2.05;;;;;;;4.33;100.00;102443.78;5252338;28;20036;-78
2023/03/04 01:59:18;;;;;;;16.48;2.90;;;;;;;4.37;100.00;102440.16;5253503;28;20132;-78
2023/03/04 02:01:52;;;;;;;10.85;2.33;;;;;;;4.36;100.00;102440.22;5248010;28;20033;-79
2023/03/04 02:04:28;;;;;;;11.25;2.58;;;;;;;4.33;100.00;102427.94;5250314;28;20056;-78
2023/03/04 02:07:01;;;;;;;11.75;2.65;;;;;;;4.36;100.00;102427.88;5247785;28;20506;-78
2023/03/04 02:09:34;;;;;;;10.80;2.35;;;;;;;4.38;100.00;102428.69;5252763;28;20040;-78
2023/03/04 02:12:05;;;;;;;22.35;2.97;;;;;;;4.38;100.00;102420.75;5250040;28;20119;-78
2023/03/04 02:14:37;;;;;;;13.10;3.00;;;;;;;4.37;100.00;102429.59;5247208;28;20031;-79
2023/03/04 02:17:11;;;;;;;9.68;2.22;;;;;;;4.38;100.00;102427.84;5249842;28;20107;-78
2023/03/04 02:20:11;;;;;;;10.20;2.25;;;;;;;4.37;100.00;102419.00;5254792;28;20104;-78
2023/03/04 02:22:52;;;;;;;10.63;2.55;;;;;;;4.36;100.00;102425.22;5249059;28;20494;-78
2023/03/04 02:25:34;;;;;;;17.55;2.83;;;;;;;4.36;100.00;102424.38;5249657;28;20036;-78
2023/03/04 02:28:05;;;;;;;11.63;3.05;;;;;;;4.41;100.00;102412.78;5249843;28;20049;-78
2023/03/04 02:30:37;;;;;;;19.88;3.17;;;;;;;4.37;100.00;102418.16;5249350;28;20036;-78
2023/03/04 02:33:18;;;;;;;15.65;2.95;;;;;;;4.35;100.00;102426.13;5246339;28;20384;-78
2023/03/04 02:35:49;;;;;;;16.10;2.67;;;;;;;4.35;100.00;102417.34;5250822;28;20437;-78
2023/03/04 02:38:21;;;;;;;12.73;2.42;;;;;;;4.35;100.00;102414.69;5243152;28;20033;-78
2023/03/04 02:40:54;;;;;;;9.85;2.03;;;;;;;4.34;100.00;102413.81;5252167;28;20041;-78
2023/03/04 02:43:26;;;;;;;17.52;2.50;;;;;;;4.35;100.00;102417.34;5253843;28;20061;-76
2023/03/04 02:45:57;;;;;;;13.43;2.25;;;;;;;4.35;100.00;102407.63;5249808;28;20175;-76
2023/03/04 02:48:28;;;;;;;14.25;2.95;;;;;;;4.34;100.00;102405.91;5250860;28;20033;-76
2023/03/04 02:50:59;;;;;;;13.82;2.35;;;;;;;4.34;100.00;102410.31;5247766;28;20067;-77
2023/03/04 02:53:31;;;;;;;10.73;2.05;;;;;;;4.36;100.00;102400.59;5245227;28;20460;-77
2023/03/04 02:56:02;;;;;;;11.98;2.40;;;;;;;4.34;100.00;102397.13;5250345;28;20031;-77
2023/03/04 02:58:33;;;;;;;14.07;2.20;;;;;;;4.37;100.00;102392.59;5254071;28;20021;-77
2023/03/04 03:01:05;;;;;;;15.10;2.47;;;;;;;4.37;100.00;102397.88;5245592;28;20037;-77
2023/03/04 03:03:36;;;;;;;13.38;2.15;;;;;;;4.38;100.00;102404.91;5245460;28;20021;-77
2023/03/04 03:06:08;;;;;;;8.98;1.95;;;;;;;4.34;100.00;102397.97;5250655;28;20033;-78
2023/03/04 03:08:39;;;;;;;10.48;2.05;;;;;;;4.35;100.00;102397.06;5250748;28;20029;-77
2023/03/04 03:11:11;;;;;;;11.55;2.78;;;;;;;4.30;100.00;102388.41;5256025;28;20059;-77
2023/03/04 03:13:42;;;;;;;14.05;2.42;;;;;;;4.32;100.00;102390.06;5251220;28;20831;-78
2023/03/04 03:16:14;;;;;;;10.52;2.15;;;;;;;4.32;100.00;102398.00;5249524;28;20036;-77
2023/03/04 03:18:45;;;;;;;18.00;2.47;;;;;;;4.33;100.00;102388.28;5247285;28;20103;-77
2023/03/04 03:21:16;;;;;;;13.43;2.30;;;;;;;4.30;100.00;102388.41;5248289;28;20399;-77
2023/03/04 03:23:49;;;;;;;13.85;2.38;;;;;;;4.30;100.00;102388.41;5244195;28;20475;-77
2023/03/04 03:26:20;;;;;;;11.77;2.78;;;;;;;4.29;100.00;102391.94;5247376;28;20091;-77
2023/03/04 03:28:51;;;;;;;10.32;2.33;;;;;;;4.29;100.00;102387.50;5249605;28;20478;-78
2023/03/04 03:31:23;;;;;;;12.82;2.20;;;;;;;4.27;100.00;102381.38;5246992;28;20029;-77
2023/03/04 03:33:54;;;;;;;13.27;2.30;;;;;;;4.29;100.00;102390.16;5250228;28;20041;-77
2023/03/04 03:36:25;;;;;;;11.63;1.90;;;;;;;4.28;100.00;102374.34;5252071;28;20116;-77
2023/03/04 03:38:56;;;;;;;13.50;2.88;;;;;;;4.27;100.00;102381.38;5250273;28;20406;-78
2023/03/04 03:41:28;;;;;;;11.30;2.40;;;;;;;4.28;100.00;102382.28;5253780;28;20032;-77
2023/03/04 03:44:00;;;;;;;17.38;2.47;;;;;;;4.30;100.00;102377.81;5251269;28;20697;-77
2023/03/04 03:46:31;;;;;;;11.80;2.33;;;;;;;4.42;100.00;102381.91;5255086;28;20032;-77
2023/03/04 03:49:03;;;;;;;11.20;1.80;;;;;;;4.31;100.00;102382.19;5254500;28;20399;-78
2023/03/04 03:51:34;;;;;;;13.43;2.38;;;;;;;4.30;100.00;102376.03;5255856;28;20028;-77
2023/03/04 03:54:05;;;;;;;9.75;2.17;;;;;;;4.29;100.00;102376.06;5249823;28;20021;-77
2023/03/04 03:56:36;;;;;;;9.98;2.65;;;;;;;4.26;100.00;102377.03;5261871;28;20485;-78
2023/03/04 03:59:08;;;;;;;11.48;2.33;;;;;;;4.28;100.00;102375.22;5252590;28;20345;-77
2023/03/04 04:01:39;;;;;;;10.90;2.33;;;;;;;4.25;100.00;102377.06;5256276;28;20483;-77
2023/03/04 04:04:10;;;;;;;10.55;2.22;;;;;;;4.27;100.00;102380.53;5251153;28;20087;-78
2023/03/04 04:06:42;;;;;;;12.43;2.30;;;;;;;4.28;100.00;102382.28;5256442;28;20028;-78
2023/03/04 04:09:13;;;;;;;10.75;2.28;;;;;;;4.26;100.00;102378.81;5253056;28;20055;-77
2023/03/04 04:11:44;;;;;;;13.60;2.10;;;;;;;4.25;100.00;102380.56;5259835;28;20056;-77
2023/03/04 04:14:16;;;;;;;11.70;2.40;;;;;;;4.22;100.00;102378.03;5256108;28;20036;-77
2023/03/04 04:16:47;;;;;;;7.20;1.90;;;;;;;4.27;100.00;102385.81;5251530;28;20037;-77
2023/03/04 04:19:20;;;;;;;16.17;3.40;;;;;;;4.24;100.00;102383.28;5259131;28;20648;-77
2023/03/04 04:21:51;;;;;;;13.02;2.13;;;;;;;4.24;100.00;102378.84;5249149;28;20075;-77
2023/03/04 04:24:22;;;;;;;13.02;1.90;;;;;;;4.25;100.00;102387.63;5254428;28;20362;-77
2023/03/04 04:26:54;;;;;;;10.60;1.90;;;;;;;4.27;100.00;102380.53;5246966;28;20080;-77
2023/03/04 04:29:25;;;;;;;13.52;2.05;;;;;;;4.28;100.00;102380.50;5254107;28;20021;-77
2023/03/04 04:31:57;;;;;;;11.70;2.60;;;;;;;4.27;100.00;102375.25;5254020;28;20447;-77
2023/03/04 04:34:28;;;;;;;11.82;2.17;;;;;;;4.27;100.00;102381.38;5255103;28;20026;-77
2023/03/04 04:37:00;;;;;;;10.25;2.13;;;;;;;4.26;100.00;102378.81;5252106;28;20036;-77
2023/03/04 04:39:31;;;;;;;11.18;2.03;;;;;;;4.26;100.00;102384.97;5246759;28;20036;-77
2023/03/04 04:42:02;;;;;;;13.57;2.78;;;;;;;4.25;100.00;102385.00;5253626;28;20119;-77
2023/03/04 04:44:34;;;;;;;10.70;2.13;;;;;;;4.23;100.00;102385.03;5253538;28;20040;-77
2023/03/04 04:47:06;;;;;;;14.55;2.95;;;;;;;4.21;100.00;102392.13;5253936;28;20033;-77
2023/03/04 04:49:37;;;;;;;11.68;2.47;;;;;;;4.22;100.00;102392.97;5249022;28;20032;-77
2023/03/04 04:52:08;;;;;;;14.70;2.50;;;;;;;4.22;100.00;102399.16;5252177;28;20376;-77
2023/03/04 04:54:39;;;;;;;10.20;2.00;;;;;;;4.21;100.00;102394.75;5251134;28;20375;-77
2023/03/04 04:57:11;;;;;;;14.38;2.20;;;;;;;4.23;100.00;102395.59;5251774;28;20415;-77
2023/03/04 04:59:42;;;;;;;12.45;2.40;;;;;;;4.21;100.00;102388.63;5252577;28;20028;-77
2023/03/04 05:02:13;;;;;;;9.32;1.80;;;;;;;4.20;100.00;102387.75;5253670;28;20025;-77
2023/03/04 05:04:45;;;;;;;9.57;2.10;;;;;;;4.19;100.00;102396.56;5252847;28;20033;-77
2023/03/04 05:07:16;;;;;;;12.77;2.00;;;;;;;4.22;100.00;102390.34;5248392;28;20392;-77
2023/03/04 05:09:47;;;;;;;15.80;2.30;;;;;;;4.21;100.00;102384.19;5249208;28;20104;-77
2023/03/04 05:12:19;;;;;;;11.07;2.03;;;;;;;4.20;100.00;102378.94;5248362;28;20033;-77
2023/03/04 05:14:50;;;;;;;10.52;2.08;;;;;;;4.19;100.00;102388.66;5249975;28;20035;-77
2023/03/04 05:17:21;;;;;;;11.35;2.15;;;;;;;4.18;100.00;102386.03;5250813;28;20024;-77
2023/03/04 05:19:52;;;;;;;11.68;1.73;;;;;;;4.20;100.00;102376.31;5248624;28;20033;-77
2023/03/04 05:22:24;;;;;;;11.55;2.20;;;;;;;4.18;100.00;102384.28;5245417;28;20029;-77
2023/03/04 05:24:56;;;;;;;12.43;2.03;;;;;;;4.16;100.00;102382.56;5250684;28;20039;-77
2023/03/04 05:27:27;;;;;;;11.38;2.50;;;;;;;4.15;100.00;102383.50;5254882;28;20139;-77
2023/03/04 05:29:58;;;;;;;13.10;2.42;;;;;;;4.15;100.00;102383.50;5253835;28;20041;-78
2023/03/04 05:32:30;;;;;;;10.15;2.38;;;;;;;4.13;100.00;102384.38;5250787;28;20056;-77
2023/03/04 05:35:01;;;;;;;12.88;2.20;;;;;;;4.15;100.00;102388.78;5248925;28;20064;-77
2023/03/04 05:37:32;;;;;;;13.35;2.55;;;;;;;4.16;100.00;102387.84;5250092;28;20383;-77
2023/03/04 05:40:04;;;;;;;10.40;2.05;;;;;;;4.14;100.00;102401.09;5253319;28;20028;-77
2023/03/04 05:42:36;;;;;;;13.20;2.55;;;;;;;4.15;100.00;102394.06;5252061;28;20299;-78
2023/03/04 05:45:07;;;;;;;18.25;2.58;;;;;;;4.15;100.00;102394.06;5250660;28;20513;-78
2023/03/04 05:47:39;;;;;;;9.88;2.00;;;;;;;4.15;100.00;102388.78;5247593;28;20027;-78
2023/03/04 05:50:11;;;;;;;9.60;1.90;;;;;;;4.13;100.00;102400.22;5248419;28;20036;-78
2023/03/04 05:52:42;;;;;;;8.13;1.73;;;;;;;4.15;100.00;102394.06;5252229;28;20447;-77
2023/03/04 05:55:15;;;;;;;10.02;1.95;;;;;;;4.16;100.00;102398.41;5251383;28;20384;-78
2023/03/04 05:57:47;;;;;;;12.13;2.60;;;;;;;4.16;100.00;102404.59;5254644;28;20046;-78
2023/03/04 06:00:18;;;;;;;8.30;1.90;;;;;;;4.17;100.00;102402.81;5253244;28;20031;-78
2023/03/04 06:02:50;;;;;;;10.27;2.33;;;;;;;4.18;100.00;102393.97;5254356;28;20029;-78
2023/03/04 06:05:22;;;;;;;16.42;2.28;;;;;;;4.16;100.00;102403.72;5251247;28;20541;-78
2023/03/04 06:07:53;;;;;;;8.10;1.83;;;;;;;4.17;100.00;102408.09;5252223;28;20479;-78
2023/03/04 06:10:25;;;;;;;10.40;1.95;;;;;;;4.16;100.00;102398.41;5252684;28;20033;-78
2023/03/04 06:12:57;;;;;;;9.38;1.90;;;;;;;4.17;100.00;102410.75;5253845;28;20035;-78
2023/03/04 06:15:28;;;;;;;14.23;2.00;;;;;;;4.15;100.00;102396.69;5250276;28;20036;-78
2023/03/04 06:18:00;;;;;;;9.82;1.90;;;;;;;4.17;100.00;102410.75;5247039;28;20017;-78
2023/03/04 06:20:31;;;;;;;11.65;1.70;;;;;;;4.16;100.00;102412.53;5248821;28;20055;-78
2023/03/04 06:23:04;;;;;;;15.30;2.05;;;;;;;4.13;100.00;102405.53;5247696;28;20033;-78
2023/03/04 06:25:35;;;;;;;12.38;1.90;;;;;;;4.15;100.00;102410.78;5251760;28;20036;-77
2023/03/04 06:28:06;;;;;;;12.27;1.90;;;;;;;4.18;100.00;102416.00;5251068;28;20373;-77
2023/03/04 06:30:37;;;;;;;8.43;1.73;;;;;;;4.13;100.00;102413.44;5246259;28;20064;-78
2023/03/04 06:33:09;;;;;;;16.65;2.00;;;;;;;4.15;100.00;102425.75;5252236;28;20087;-78
2023/03/04 06:35:40;;;;;;;8.25;1.63;;;;;;;4.10;100.00;102416.19;5248627;28;20064;-78
2023/03/04 06:38:11;;;;;;;10.75;2.03;;;;;;;4.09;100.00;102414.44;5248322;28;20628;-78
2023/03/04 06:40:44;;;;;;;11.75;2.78;;;;;;;4.10;100.00;102420.56;5249138;28;20056;-78
2023/03/04 06:43:15;;;;;;;5.82;1.63;;;;;;;4.06;100.00;102418.91;5245989;28;20025;-78
2023/03/04 06:45:48;;;;;;;8.05;2.00;;;;;;;4.06;100.00;102417.13;5251996;28;20503;-78
2023/03/04 06:48:19;;;;;;;9.75;2.00;;;;;;;4.07;100.00;102415.38;5249038;28;20074;-78
2023/03/04 06:50:50;;;;;;;10.32;2.15;;;;;;;4.14;100.00;102416.94;5247662;28;20590;-78
2023/03/04 06:53:22;;;;;;;4.90;1.67;;;;;;;4.09;100.00;102429.41;5253343;28;20489;-78
2023/03/04 06:55:53;;;;;;;7.30;1.73;;;;;;;4.10;100.00;102423.22;5244918;28;20543;-78
2023/03/04 06:58:24;;;;;;;8.32;2.20;;;;;;;4.10;100.00;102426.75;5247191;28;20052;-78
2023/03/04 07:00:56;;;;;;;8.02;2.28;;;;;;;4.08;100.00;102428.53;5248209;28;20410;-78
2023/03/04 07:03:27;;;;;;;8.98;1.77;;;;;;;4.10;100.00;102428.50;5246741;28;20517;-78
2023/03/04 07:05:58;;;;;;;8.60;2.00;;;;;;;4.11;100.00;102427.59;5249750;28;20866;-78
2023/03/04 07:08:30;;;;;;;10.15;2.30;;;;;;;4.10;100.00;102426.75;5241376;28;20036;-78
2023/03/04 07:11:01;;;;;;;9.25;2.28;;;;;;;4.11;100.00;102433.75;5235986;28;20124;-78
2023/03/04 07:13:34;;;;;;;10.27;2.28;;;;;;;4.21;100.00;102429.09;5247567;28;20802;-78
2023/03/04 07:16:10;;;;;;;24.65;6.15;;;;;;;4.21;100.00;102436.16;5251325;28;20099;-78
2023/03/04 07:18:42;;;;;;;12.25;2.72;;;;;;;4.20;100.00;102430.03;5249890;28;20035;-78
2023/03/04 07:21:15;;;;;;;9.00;2.70;;;;;;;4.19;100.00;102443.28;5246672;28;20047;-77
2023/03/04 07:23:46;;;;;;;7.55;2.50;;;;;;;4.18;100.00;102438.88;5252782;28;20060;-78
2023/03/04 07:26:18;;;;;;;9.70;2.83;;;;;;;4.28;100.00;102445.69;5256813;28;20632;-78
2023/03/04 07:28:51;;;;;;;10.55;2.60;;;;;;;4.24;100.00;102450.19;5249216;28;20094;-78
2023/03/04 07:31:28;;;;;;;12.15;3.40;;;;;;;4.25;100.00;102448.41;5254628;28;20450;-78
2023/03/04 07:34:03;;;;;;;7.00;2.40;;;;;;;4.25;100.00;102457.19;5254832;28;20063;-78
2023/03/04 07:36:35;;;;;;;10.00;3.30;;;;;;;4.31;100.00;102453.53;5254264;28;20029;-78
2023/03/04 07:39:07;;;;;;;7.20;2.30;;;;;;;4.30;100.00;102460.59;5242955;28;20071;-78
2023/03/04 07:41:39;;;;;;;11.18;2.60;;;;;;;4.32;100.00;102463.22;5251433;28;20025;-78
2023/03/04 07:44:12;;;;;;;12.57;2.58;;;;;;;4.34;100.00;102457.88;5249322;28;20667;-78
2023/03/04 07:46:43;;;;;;;11.90;3.13;;;;;;;4.33;100.00;102464.91;5252830;28;20871;-78
2023/03/04 07:49:14;;;;;;;11.23;3.13;;;;;;;4.34;100.00;102461.38;5255946;28;20029;-78
2023/03/04 07:51:46;;;;;;;11.45;2.88;;;;;;;4.37;100.00;102471.00;5253305;28;20060;-78
2023/03/04 07:54:18;;;;;;;13.55;2.83;;;;;;;4.37;100.00;102466.59;5251651;28;20167;-78
2023/03/04 07:56:50;;;;;;;8.68;2.83;;;;;;;4.39;100.00;102469.19;5252422;28;20033;-78
2023/03/04 07:59:21;;;;;;;10.90;3.00;;;;;;;4.38;100.00;102470.97;5249365;28;20030;-78
2023/03/04 08:01:52;;;;;;;10.93;3.05;;;;;;;4.39;100.00;102464.81;5248702;28;20089;-78
2023/03/04 08:04:24;;;;;;;12.20;3.17;;;;;;;4.40;100.00;102469.16;5244769;28;20029;-78
2023/03/04 08:06:55;;;;;;;9.20;2.65;;;;;;;4.38;100.00;102473.63;5243818;28;20052;-78
2023/03/04 08:09:26;;;;;;;8.07;2.70;;;;;;;4.41;100.00;102472.66;5249426;28;20082;-78
2023/03/04 08:11:58;;;;;;;6.63;2.60;;;;;;;4.45;100.00;102469.03;5242315;28;20025;-78
2023/03/04 08:14:29;;;;;;;12.07;3.00;;;;;;;4.45;100.00;102471.69;5249965;28;20090;-78
2023/03/04 08:17:00;;;;;;;9.10;2.40;;;;;;;4.46;100.00;102476.94;5245840;28;20551;-78
2023/03/04 08:19:32;;;;;;;7.60;2.20;;;;;;;4.46;100.00;102469.00;5251272;28;20025;-78
2023/03/04 08:22:03;;;;;;;15.20;2.67;;;;;;;4.49;100.00;102470.72;5246593;28;20037;-78
2023/03/04 08:24:34;;;;;;;9.45;2.70;;;;;;;4.50;100.00;102470.66;5252206;28;20032;-78
2023/03/04 08:27:06;;;;;;;9.85;2.83;;;;;;;4.54;100.00;102475.88;5250290;28;20087;-78
2023/03/04 08:29:37;;;;;;;11.32;2.97;;;;;;;4.56;100.00;102474.06;5254629;28;20033;-78
2023/03/04 08:32:08;;;;;;;9.10;2.90;;;;;;;4.57;100.00;102466.09;5257308;28;20075;-78
2023/03/04 08:34:40;;;;;;;5.97;2.47;;;;;;;4.61;100.00;102472.19;5251991;28;20029;-79
2023/03/04 08:37:11;;;;;;;10.60;2.70;;;;;;;4.67;100.00;102472.03;5257488;28;20111;-78
2023/03/04 08:39:42;;;;;;;9.65;2.40;;;;;;;4.68;100.00;102469.34;5254740;28;20530;-78
2023/03/04 08:42:14;;;;;;;9.70;3.03;;;;;;;4.76;100.00;102473.56;5254640;28;20033;-78
2023/03/04 08:44:46;;;;;;;11.05;2.53;;;;;;;4.83;100.00;102477.78;5255936;28;20071;-78
2023/03/04 08:47:17;;;;;;;12.52;3.15;;;;;;;4.87;100.00;102477.69;5256887;28;20373;-78
2023/03/04 08:49:48;;;;;;;11.50;2.65;;;;;;;4.89;100.00;102475.00;5257425;28;20186;-79
2023/03/04 08:52:19;;;;;;;6.90;2.30;;;;;;;4.90;100.00;102480.22;5257145;28;20037;-78
2023/03/04 08:54:51;;;;;;;8.55;2.42;;;;;;;4.97;100.00;102477.44;5256142;28;20435;-78
2023/03/04 08:57:22;;;;;;;8.80;2.40;;;;;;;5.03;100.00;102477.25;5257729;28;20037;-78
2023/03/04 08:59:53;;;;;;;9.80;2.60;;;;;;;5.09;100.00;102471.81;5260369;28;20035;-78
2023/03/04 09:02:25;;;;;;;8.65;2.92;;;;;;;5.22;100.00;102477.63;5257546;28;20024;-78
2023/03/04 09:04:56;;;;;;;9.75;2.45;;;;;;;5.25;100.00;102473.13;5248785;28;20118;-78
2023/03/04 09:07:27;;;;;;;11.57;3.92;;;;;;;5.37;100.00;102468.38;5253984;28;20075;-78
2023/03/04 09:09:58;;;;;;;10.98;2.42;;;;;;;5.41;100.00;102467.41;5253351;28;20556;-78
2023/03/04 09:12:30;;;;;;;8.40;1.60;;;;;;;5.50;100.00;102468.00;5246759;28;20079;-78
2023/03/04 09:15:02;;;;;;;9.20;2.20;;;;;;;5.61;100.00;102461.50;5256174;28;20028;-78
2023/03/04 09:17:33;;;;;;;7.25;2.42;;;;;;;5.68;100.00;102461.28;5256720;28;20024;-78
2023/03/04 09:20:07;;;;;;;9.30;2.35;;;;;;;5.72;100.00;102458.56;5254722;28;20044;-78
2023/03/04 09:22:40;;;;;;;8.90;2.42;;;;;;;5.77;100.00;102457.50;5248818;28;20029;-79
2023/03/04 09:25:14;;;;;;;7.88;2.40;;;;;;;5.77;100.00;102452.19;5255884;28;20111;-79
2023/03/04 09:27:45;;;;;;;10.13;2.42;;;;;;;5.86;100.00;102462.50;5255850;28;20056;-78
2023/03/04 09:30:17;;;;;;;8.35;2.85;;;;;;;5.93;100.00;102455.22;5255727;28;20021;-79
2023/03/04 09:32:48;;;;;;;12.52;2.55;;;;;;;5.99;100.00;102440.97;5257823;28;20391;-78
2023/03/04 09:35:19;;;;;;;7.88;2.10;;;;;;;6.03;100.00;102440.81;5254917;28;20126;-78
2023/03/04 09:37:51;;;;;;;7.97;1.92;;;;;;;6.09;100.00;102453.84;5250807;28;20081;-78
2023/03/04 09:40:27;;;;;;;7.63;1.85;;;;;;;6.20;100.00;102445.56;5255553;28;20021;-78
2023/03/04 09:43:04;;;;;;;5.90;1.95;;;;;;;6.27;100.00;102444.47;5255568;28;20032;-79
2023/03/04 09:45:54;;;;;;;9.30;1.88;;;;;;;6.31;100.00;102453.19;5255236;28;20236;-79
2023/03/04 09:48:38;;;;;;;8.35;1.75;;;;;;;6.35;100.00;102446.88;5256151;28;20094;-79
2023/03/04 09:51:33;;;;;;;3.47;1.25;;;;;;;6.35;100.00;102435.38;5254734;28;20400;-78
2023/03/04 09:54:06;;;;;;;;;;;;;;;6.45;100.00;102442.97;5254677;28;20035;-78
2023/03/04 09:56:39;;;;;;;4.03;1.33;;;;;;;6.44;100.00;102446.56;5257851;28;20333;-79
2023/03/04 09:59:22;;;;;;;5.93;1.27;;;;;;;6.43;100.00;102442.16;5254800;28;20442;-79
2023/03/04 10:01:57;;;;;;;4.60;1.20;;;;;;;6.44;100.00;102443.03;5254487;28;20487;-78
2023/03/04 10:04:41;;;;;;;4.88;1.35;;;;;;;6.43;100.00;102451.91;5253050;28;20107;-78
2023/03/04 10:07:25;;;;;;;5.65;1.38;;;;;;;6.46;100.00;102450.03;5248557;28;20400;-79
2023/03/04 10:10:02;;;;;;;5.18;1.63;;;;;;;6.52;100.00;102448.97;5254161;28;20029;-79
2023/03/04 10:12:39;;;;;;;5.22;1.40;;;;;;;6.54;100.00;102446.22;5260962;28;20536;-78
2023/03/04 10:15:42;;;;;;;7.20;1.70;;;;;;;6.54;100.00;102440.94;5255048;28;20155;-78
2023/03/04 10:18:26;;;;;;;8.65;1.75;;;;;;;6.59;100.00;102434.53;5248954;28;20554;-78
2023/03/04 10:21:00;;;;;;;5.22;1.67;;;;;;;6.63;100.00;102443.28;5248437;28;20029;-79
2023/03/04 10:23:34;;;;;;;5.20;1.52;;;;;;;6.66;100.00;102445.84;5249059;28;20033;-78
2023/03/04 10:26:15;;;;;;;6.40;1.58;;;;;;;6.69;100.00;102443.06;5256171;28;20281;-78
2023/03/04 10:28:47;;;;;;;9.88;2.05;;;;;;;6.75;100.00;102437.56;5258574;28;20112;-79
2023/03/04 10:31:35;;;;;;;6.75;1.50;;;;;;;6.93;100.00;102441.34;5254678;28;20025;-79
2023/03/04 10:34:10;;;;;;;6.45;1.40;;;;;;;7.11;100.00;102431.84;5249370;28;20087;-79
2023/03/04 10:37:07;;;;;;;8.25;1.83;;;;;;;7.13;100.00;102432.66;5249618;28;20021;-79
2023/03/04 10:39:44;;;;;;;5.85;2.03;;;;;;;7.15;100.00;102435.25;5251636;28;20497;-79
2023/03/04 10:42:15;;;;;;;4.20;1.30;;;;;;;7.09;100.00;102428.38;5251786;28;20120;-79
2023/03/04 10:44:59;;;;;;;5.72;1.33;;;;;;;7.11;100.00;102429.19;5253328;28;20120;-79
2023/03/04 10:47:31;;;;;;;5.60;1.55;;;;;;;7.06;100.00;102425.84;5250734;28;20036;-79
2023/03/04 10:50:04;;;;;;;7.85;1.50;;;;;;;7.00;100.00;102423.41;5253847;28;20260;-79
2023/03/04 10:52:45;;;;;;;5.70;1.88;;;;;;;6.92;100.00;102414.84;5253550;28;20466;-79
2023/03/04 10:55:20;;;;;;;4.07;1.13;;;;;;;6.85;100.00;102433.66;5247623;28;20021;-79
2023/03/04 10:58:02;;;;;;;9.60;1.70;;;;;;;6.80;100.00;102427.63;5254101;28;21222;-78
2023/03/04 11:00:37;;;;;;;6.10;1.40;;;;;;;6.73;100.00;102428.78;5242397;28;20041;-79
2023/03/04 11:03:27;;;;;;;5.00;1.85;;;;;;;6.75;100.00;102424.28;5254553;28;20086;-78
2023/03/04 11:06:19;;;;;;;8.88;1.85;;;;;;;6.76;100.00;102423.34;5255263;28;20025;-78
2023/03/04 11:08:56;;;;;;;5.38;1.98;;;;;;;6.79;100.00;102422.41;5253230;28;20063;-78
2023/03/04 11:11:41;;;;;;;7.97;2.03;;;;;;;6.80;100.00;102422.31;5249676;28;20036;-78
2023/03/04 11:14:28;;;;;;;11.50;5.05;;;;;;;6.78;100.00;102410.91;5263438;28;20444;-79
2023/03/04 11:17:02;;;;;;;10.77;3.42;;;;;;;6.74;100.00;102408.44;5257296;28;20849;-79
2023/03/04 11:19:37;;;;;;;;;;;;;;;6.78;100.00;102408.25;5255350;28;20040;-79
2023/03/04 11:22:13;;;;;;;5.30;2.25;;;;;;;6.70;100.00;102406.81;5254049;28;19917;-79
2023/03/04 11:24:59;;;;;;;5.05;2.03;;;;;;;6.66;100.00;102403.41;5248646;28;20028;-79
2023/03/04 11:27:40;;;;;;;6.75;2.42;;;;;;;6.58;100.00;102406.31;5245001;28;20049;-79
2023/03/04 11:30:15;;;;;;;6.97;2.20;;;;;;;6.58;100.00;102400.16;5250010;28;20033;-78
2023/03/04 11:32:50;;;;;;;7.32;2.47;;;;;;;6.52;100.00;102395.03;5246858;28;20113;-78
2023/03/04 11:35:34;;;;;;;8.75;3.83;;;;;;;6.55;100.00;102401.09;5255381;28;20159;-78
2023/03/04 11:38:05;;;;;;;7.95;2.83;;;;;;;6.60;100.00;102395.66;5259403;28;20020;-78
2023/03/04 11:41:09;;;;;;;8.05;2.45;;;;;;;6.59;100.00;102399.22;5247583;28;20036;-79
2023/03/04 11:43:45;;;;;;;5.97;2.13;;;;;;;6.59;100.00;102399.22;5250900;28;20406;-78
2023/03/04 11:46:22;;;;;;;4.40;1.90;;;;;;;6.60;100.00;102380.59;5249011;28;20021;-78
2023/03/04 11:49:06;;;;;;;4.72;2.20;;;;;;;6.58;100.00;102390.41;5253454;28;20029;-78